Time;durP1;ratioP1;P1;durP2;ratioP2;P2;SDS_P1;SDS_P2;PMS_P1;PMS_P2;Temp;Humidity;BMP_temperature;BMP_pressure;BME280_temperature;BME280_humidity;BME280_pressure;Samples;Min_cycle;Max_cycle;Signal;HPM_P1;HPM_P2
2022/12/17 13:07:06;;;;;;;0.00;0.00;;;;;;;17.15;38.67;100890.78;6267207;22;20007;-79
2022/12/17 13:09:46;;;;;;;0.00;0.00;;;;;;;17.84;35.30;100860.59;6219171;22;20015;-78
2022/12/17 13:12:23;;;;;;;0.00;0.00;;;;;;;16.25;38.32;100887.75;6240021;22;20003;-77
2022/12/17 13:18:52;;;;;;;;;;;;;;;;;;;;;
2022/12/17 13:21:31;;;;;;;;;;;;;;;;;;;;;
2022/12/17 13:23:57;;;;;;;0.00;0.00;;;;;;;19.59;33.33;100898.47;6267474;22;20079;-78
2022/12/17 13:26:41;;;;;;;0.00;0.00;;;;;;;18.62;34.58;100885.69;6217139;22;20157;-78
2022/12/17 13:29:18;;;;;;;0.00;0.00;;;;;;;16.66;36.52;100887.25;6237673;22;20021;-77
2022/12/17 13:32:10;;;;;;;0.00;0.00;;;;;;;16.31;38.41;100898.47;6239269;22;20000;-78
2022/12/17 13:35:04;;;;;;;0.00;0.00;;;;;;;15.27;38.74;100885.84;6241077;22;20330;-79
2022/12/17 13:38:02;;;;;;;0.00;0.00;;;;;;;14.40;40.08;100885.16;6266901;22;20024;-79
2022/12/17 13:40:45;;;;;;;0.00;0.00;;;;;;;13.92;41.82;100891.06;6264127;22;20087;-75
2022/12/17 13:43:17;;;;;;;0.03;0.03;;;;;;;14.63;41.02;100889.25;6264267;22;21027;-76
2022/12/17 13:45:44;;;;;;;0.00;0.00;;;;;;;14.01;40.88;100882.25;6239830;22;20011;-76
2022/12/17 13:48:22;;;;;;;0.00;0.00;;;;;;;12.64;42.71;100872.47;6235663;22;20038;-80
2022/12/17 13:50:56;;;;;;;0.00;0.00;;;;;;;11.61;45.33;100884.75;6268296;22;20003;-78
2022/12/17 13:53:32;;;;;;;;;;;;;;;10.96;47.63;100884.69;6264982;22;20086;-77
2022/12/17 13:56:00;;;;;;;0.00;0.00;;;;;;;10.20;49.02;100875.25;6240211;22;19911;-76
2022/12/17 13:58:32;;;;;;;0.00;0.00;;;;;;;9.72;50.61;100890.41;6236388;22;20372;-76
2022/12/17 14:01:13;;;;;;;0.00;0.00;;;;;;;9.16;51.99;100885.66;6238446;22;20008;-76
2022/12/17 14:03:47;;;;;;;0.00;0.00;;;;;;;8.76;52.63;100883.81;6237364;22;20007;-77
2022/12/17 14:06:13;;;;;;;;;;;;;;;8.54;53.61;100881.75;6270209;22;20057;-80
2022/12/17 14:08:41;;;;;;;0.00;0.00;;;;;;;8.38;54.72;100893.34;6260589;22;19907;-78
2022/12/17 14:13:54;;;;;;;0.00;0.00;;;;;;;7.68;56.83;100870.53;6261014;22;20026;-76
2022/12/17 14:16:33;;;;;;;0.00;0.00;;;;;;;7.55;57.30;100866.19;6268496;22;20008;-78
2022/12/17 14:18:59;;;;;;;0.00;0.00;;;;;;;7.37;58.33;100872.53;6235619;22;20501;-79
2022/12/17 14:21:29;;;;;;;0.00;0.00;;;;;;;7.36;58.25;100875.47;6239773;22;20004;-78
2022/12/17 14:24:06;;;;;;;0.00;0.00;;;;;;;7.20;58.20;100868.81;6239646;22;20014;-78
2022/12/17 14:26:32;;;;;;;0.00;0.00;;;;;;;7.10;58.08;100872.94;6244471;22;20004;-75
2022/12/17 14:29:18;;;;;;;0.00;0.00;;;;;;;6.99;59.56;100876.44;6240174;22;20018;-78
2022/12/17 14:32:04;;;;;;;0.00;0.00;;;;;;;7.08;59.30;100877.78;6241165;22;20432;-77
2022/12/17 14:34:48;;;;;;;0.00;0.00;;;;;;;7.03;59.55;100861.31;6270557;22;19999;-78
2022/12/17 14:37:38;;;;;;;0.00;0.00;;;;;;;7.00;58.42;100875.38;6238570;22;20007;-79
2022/12/17 14:40:10;;;;;;;0.00;0.00;;;;;;;6.73;58.91;100867.59;6236284;22;20016;-76
2022/12/17 14:42:35;;;;;;;0.00;0.00;;;;;;;6.67;59.82;100873.94;6233000;23;20017;-77
2022/12/17 14:45:05;;;;;;;0.00;0.00;;;;;;;6.35;60.13;100849.69;6232848;23;20304;-77
2022/12/17 14:47:35;;;;;;;0.10;0.10;;;;;;;6.33;60.00;100867.28;6236756;23;20002;-77
2022/12/17 14:50:27;;;;;;;0.10;0.10;;;;;;;6.37;60.26;100863.88;6235170;22;20035;-78
2022/12/17 14:52:59;;;;;;;0.00;0.00;;;;;;;6.01;59.64;100837.53;6232092;23;20088;-78
2022/12/17 14:55:38;;;;;;;0.00;0.00;;;;;;;6.00;60.47;100863.88;6233047;23;20008;-79
2022/12/17 14:58:12;;;;;;;0.00;0.00;;;;;;;5.83;59.86;100863.59;6236891;22;20494;-77
2022/12/17 15:01:02;;;;;;;0.00;0.00;;;;;;;5.61;61.01;100849.59;6236755;23;20004;-77
2022/12/17 15:03:36;;;;;;;0.10;0.10;;;;;;;5.44;61.19;100848.50;6236671;22;20011;-79
2022/12/17 15:06:04;;;;;;;0.00;0.00;;;;;;;5.31;60.83;100839.41;6240452;22;20004;-78
2022/12/17 15:08:40;;;;;;;0.00;0.00;;;;;;;5.30;61.44;100848.63;6234480;22;20422;-80
2022/12/17 15:11:16;;;;;;;;;;;;;;;;;;;;;
2022/12/17 15:13:42;;;;;;;0.00;0.00;;;;;;;5.20;61.05;100854.50;6239547;23;20035;-78
2022/12/17 15:16:09;;;;;;;0.00;0.00;;;;;;;5.21;61.92;100866.19;6220647;23;20008;-82
2022/12/17 15:18:59;;;;;;;0.00;0.00;;;;;;;5.01;61.07;100840.06;6243217;23;20004;-81
2022/12/17 15:21:45;;;;;;;0.00;0.00;;;;;;;4.93;61.90;100821.34;6242599;23;20004;-80
2022/12/17 15:24:34;;;;;;;;;;;;;;;;;;;;;
2022/12/17 15:27:03;;;;;;;0.00;0.00;;;;;;;4.87;61.53;100833.88;6242083;23;20032;-78
2022/12/17 15:29:30;;;;;;;0.00;0.00;;;;;;;4.79;61.79;100836.00;6246048;22;19996;-80
2022/12/17 15:31:56;;;;;;;0.03;0.03;;;;;;;4.78;62.26;100846.03;6244328;23;20038;-80
2022/12/17 15:34:21;;;;;;;0.00;0.00;;;;;;;4.81;62.26;100866.44;6243954;22;20000;-80
2022/12/17 15:36:49;;;;;;;0.00;0.00;;;;;;;4.63;61.81;100851.75;6193505;23;20007;-82
2022/12/17 15:39:17;;;;;;;0.00;0.00;;;;;;;4.61;62.15;100861.13;6235562;22;20040;-81
2022/12/17 15:44:34;;;;;;;0.10;0.10;;;;;;;4.37;62.94;100849.97;6236004;23;20022;-82
2022/12/17 15:46:59;;;;;;;0.00;0.00;;;;;;;4.34;62.94;100862.06;6211151;23;20099;-81
2022/12/17 15:49:24;;;;;;;0.00;0.00;;;;;;;4.32;62.87;100863.31;6236922;23;20004;-80
2022/12/17 15:51:55;;;;;;;0.00;0.00;;;;;;;4.18;63.35;100851.72;6213143;23;20004;-79
2022/12/17 15:54:27;;;;;;;0.00;0.00;;;;;;;4.27;63.35;100890.22;6208880;23;20010;-77
2022/12/17 15:56:54;;;;;;;0.10;0.10;;;;;;;4.21;63.98;100883.78;6239109;23;20573;-79
2022/12/17 15:59:20;;;;;;;0.00;0.00;;;;;;;4.06;63.87;100875.06;6209508;23;20008;-77
2022/12/17 16:01:46;;;;;;;0.00;0.00;;;;;;;3.97;64.58;100886.13;6212287;23;20016;-77
2022/12/17 16:04:11;;;;;;;0.00;0.00;;;;;;;3.98;64.65;100893.19;6239519;23;20071;-79
2022/12/17 16:06:37;;;;;;;0.00;0.00;;;;;;;3.89;64.54;100891.75;6213849;23;20033;-79
2022/12/17 16:09:31;;;;;;;0.00;0.00;;;;;;;3.82;64.41;100890.91;6209513;23;20431;-79
2022/12/17 16:11:57;;;;;;;0.00;0.00;;;;;;;3.72;64.48;100890.53;6240052;23;20418;-78
2022/12/17 16:14:43;;;;;;;;;;;;;;;;;;;;;
2022/12/17 16:17:11;;;;;;;0.00;0.00;;;;;;;3.62;64.80;100891.78;6241181;23;20084;-79
2022/12/17 16:19:49;;;;;;;0.00;0.00;;;;;;;3.52;65.08;100893.22;6237295;23;20453;-76
2022/12/17 16:22:16;;;;;;;0.00;0.00;;;;;;;3.43;64.95;100884.47;6239076;23;20038;-77
2022/12/17 16:24:42;;;;;;;0.00;0.00;;;;;;;3.26;65.35;100887.59;6316766;22;20015;-77
2022/12/17 16:27:10;;;;;;;0.10;0.10;;;;;;;3.10;66.17;100875.31;6190727;23;20008;-80
2022/12/17 16:29:35;;;;;;;0.00;0.00;;;;;;;3.06;65.81;100881.34;6244136;23;20011;-81
2022/12/17 16:32:01;;;;;;;0.00;0.00;;;;;;;2.93;66.27;100887.53;6216498;23;20127;-79
2022/12/17 16:34:27;;;;;;;0.00;0.00;;;;;;;2.81;66.76;100871.09;6241782;23;20000;-77
2022/12/17 16:37:05;;;;;;;;;;;;;;;;;;;;;
2022/12/17 16:40:04;;;;;;;;;;;;;;;;;;;;;
2022/12/17 16:42:46;;;;;;;0.00;0.00;;;;;;;2.58;67.09;100868.72;6270107;22;20328;-77
2022/12/17 16:45:27;;;;;;;;;;;;;;;;;;;;;
2022/12/17 16:47:55;;;;;;;0.00;0.00;;;;;;;2.50;67.09;100877.00;6270944;22;20433;-77
2022/12/17 16:50:21;;;;;;;0.00;0.00;;;;;;;2.68;67.01;100896.19;6242560;22;20003;-76
2022/12/17 16:52:46;;;;;;;0.10;0.10;;;;;;;2.66;66.70;100875.81;6241075;22;20019;-76
2022/12/17 16:55:14;;;;;;;0.10;0.10;;;;;;;2.65;66.23;100868.75;6246709;22;20337;-78
2022/12/17 16:57:50;;;;;;;0.10;0.10;;;;;;;2.72;66.27;100869.63;6244099;22;20311;-76
2022/12/17 17:00:15;;;;;;;0.10;0.10;;;;;;;2.66;66.49;100860.47;6244647;22;20144;-77
2022/12/17 17:02:44;;;;;;;0.00;0.00;;;;;;;2.66;66.69;100863.16;6238414;22;20514;-75
2022/12/17 17:05:09;;;;;;;0.00;0.00;;;;;;;2.57;66.58;100857.09;6192700;22;20068;-76
2022/12/17 17:07:35;;;;;;;0.00;0.00;;;;;;;2.50;67.26;100856.25;6266725;22;20425;-76
2022/12/17 17:10:08;;;;;;;0.00;0.00;;;;;;;2.47;67.06;100867.44;6240786;22;20018;-75
2022/12/17 17:12:38;;;;;;;0.00;0.00;;;;;;;2.49;67.04;100886.16;6269984;22;20004;-75
2022/12/17 17:15:06;;;;;;;0.00;0.00;;;;;;;2.35;67.24;100869.03;6242083;22;20318;-75
2022/12/17 17:17:32;;;;;;;0.00;0.00;;;;;;;2.26;67.53;100866.53;6240386;22;20021;-76
2022/12/17 17:20:07;;;;;;;0.00;0.00;;;;;;;2.17;67.87;100864.19;6209650;22;20120;-75
2022/12/17 17:22:32;;;;;;;0.10;0.10;;;;;;;2.06;67.93;100861.03;6215049;22;20020;-76
2022/12/17 17:25:06;;;;;;;0.00;0.00;;;;;;;2.12;67.64;100878.28;6240094;22;20098;-75
2022/12/17 17:27:34;;;;;;;0.00;0.00;;;;;;;1.97;68.09;100869.47;6263972;22;20011;-76
2022/12/17 17:30:00;;;;;;;0.05;0.05;;;;;;;1.94;68.40;100877.97;6269387;22;20003;-76
2022/12/17 17:32:25;;;;;;;0.00;0.00;;;;;;;1.89;67.91;100875.88;6188312;22;20319;-78
2022/12/17 17:35:18;;;;;;;;;;;;;;;;;;;;;
2022/12/17 17:37:59;;;;;;;;;;;;;;;;;;;;;
2022/12/17 17:41:14;;;;;;;0.00;0.00;;;;;;;1.68;68.87;100857.88;6262446;22;20107;-77
2022/12/17 17:43:47;;;;;;;0.10;0.10;;;;;;;1.82;68.29;100874.97;6218923;22;20493;-77
2022/12/17 17:46:39;;;;;;;0.10;0.10;;;;;;;1.90;68.76;100872.97;6240386;22;20011;-79
2022/12/17 17:49:07;;;;;;;0.00;0.00;;;;;;;1.98;68.31;100879.25;6238649;22;20083;-76
2022/12/17 17:51:40;;;;;;;0.10;0.10;;;;;;;2.03;68.56;100872.22;6244001;22;20035;-77
2022/12/17 17:54:08;;;;;;;0.00;0.00;;;;;;;2.12;68.01;100891.78;6238517;22;20000;-77
2022/12/17 17:56:41;;;;;;;0.00;0.00;;;;;;;2.10;67.98;100888.44;6243182;22;19999;-76
2022/12/17 17:59:10;;;;;;;0.00;0.00;;;;;;;2.16;67.89;100901.16;6241590;22;20283;-75
2022/12/17 18:01:46;;;;;;;0.00;0.00;;;;;;;2.11;68.37;100900.91;6218414;22;20020;-77
2022/12/17 18:04:38;;;;;;;0.10;0.10;;;;;;;1.92;68.28;100881.69;6241536;22;20076;-78
2022/12/17 18:11:14;;;;;;;;;;;;;;;;;;;;;
2022/12/17 18:13:56;;;;;;;0.00;0.00;;;;;;;1.72;69.01;100908.53;6268180;22;20079;-76
2022/12/17 18:16:32;;;;;;;0.05;0.05;;;;;;;1.49;69.27;100891.72;6269222;22;20006;-75
2022/12/17 18:19:22;;;;;;;0.10;0.10;;;;;;;1.22;69.88;100876.16;6241732;22;20102;-76
2022/12/17 18:21:48;;;;;;;0.10;0.10;;;;;;;1.25;70.06;100895.69;6270479;22;19992;-75
2022/12/17 18:24:20;;;;;;;0.00;0.00;;;;;;;1.12;69.90;100891.81;6240726;22;20007;-74
2022/12/17 18:26:46;;;;;;;0.10;0.10;;;;;;;0.99;70.77;100879.06;6245174;22;20011;-74
2022/12/17 18:29:18;;;;;;;0.10;0.10;;;;;;;0.73;70.86;100865.31;6240732;22;20015;-74
2022/12/17 18:31:44;;;;;;;0.00;0.00;;;;;;;0.67;71.48;100872.28;6272138;22;20000;-74
2022/12/17 18:34:26;;;;;;;;;;;;;;;;;;;;;
2022/12/17 18:36:52;;;;;;;0.00;0.00;;;;;;;0.52;71.59;100886.59;6268557;22;20095;-76
2022/12/17 18:39:21;;;;;;;0.00;0.00;;;;;;;0.34;72.16;100872.72;6237890;22;20055;-75
2022/12/17 18:44:42;;;;;;;;;;;;;;;0.25;73.36;100890.81;6265188;22;20341;-76
2022/12/17 18:47:29;;;;;;;;;;;;;;;;;;;;;
2022/12/17 18:49:55;;;;;;;0.00;0.00;;;;;;;0.03;73.36;100886.38;6261008;22;20082;-75
2022/12/17 18:52:22;;;;;;;0.00;0.00;;;;;;;-0.14;73.99;100864.22;6266031;22;20039;-74
2022/12/17 18:54:50;;;;;;;0.00;0.00;;;;;;;-0.16;73.86;100874.31;6234827;22;20015;-75
2022/12/17 18:57:16;;;;;;;0.00;0.00;;;;;;;-0.22;74.18;100874.03;6213500;22;20011;-74
2022/12/17 18:59:41;;;;;;;0.00;0.00;;;;;;;-0.25;74.79;100879.78;6210207;22;20104;-74
2022/12/17 19:02:11;;;;;;;0.00;0.00;;;;;;;-0.32;74.21;100873.47;6267203;22;20000;-74
2022/12/17 19:04:37;;;;;;;0.00;0.00;;;;;;;-0.34;74.35;100885.41;6235929;22;20010;-76
2022/12/17 19:07:03;;;;;;;0.00;0.00;;;;;;;-0.36;75.69;100893.66;6265378;22;20418;-75
2022/12/17 19:09:34;;;;;;;0.00;0.00;;;;;;;-0.37;75.65;100886.63;6239761;22;20004;-74
2022/12/17 19:12:00;;;;;;;0.10;0.10;;;;;;;-0.37;76.48;100887.44;6212309;22;20313;-79
2022/12/17 19:14:26;;;;;;;0.00;0.00;;;;;;;-0.44;75.93;100882.97;6240948;22;20007;-75
2022/12/17 19:16:56;;;;;;;0.00;0.00;;;;;;;-0.45;76.54;100889.38;6240837;22;20008;-75
2022/12/17 19:19:25;;;;;;;0.00;0.00;;;;;;;-0.46;76.13;100887.72;6266552;22;20031;-74
2022/12/17 19:21:53;;;;;;;0.00;0.00;;;;;;;-0.43;76.94;100892.72;6267888;22;20063;-74
2022/12/17 19:24:20;;;;;;;0.00;0.00;;;;;;;-0.61;76.88;100864.34;6236501;22;20014;-74
2022/12/17 19:26:46;;;;;;;0.00;0.00;;;;;;;-0.50;76.44;100897.97;6214597;22;20072;-75
2022/12/17 19:29:13;;;;;;;0.10;0.10;;;;;;;-0.56;78.07;100883.41;6237423;22;20481;-75
2022/12/17 19:31:39;;;;;;;0.00;0.00;;;;;;;-0.49;77.86;100893.47;6240253;22;20501;-74
2022/12/17 19:34:08;;;;;;;0.00;0.00;;;;;;;-0.48;77.05;100873.59;6236188;22;20011;-73
2022/12/17 19:36:35;;;;;;;0.00;0.00;;;;;;;-0.46;78.20;100876.97;6240240;22;20003;-73
2022/12/17 19:39:05;;;;;;;0.00;0.00;;;;;;;-0.46;77.90;100883.16;6240270;22;20000;-73
2022/12/17 19:41:32;;;;;;;0.00;0.00;;;;;;;-0.61;77.80;100877.75;6242064;22;20329;-73
2022/12/17 19:44:06;;;;;;;0.00;0.00;;;;;;;-0.61;77.66;100885.00;6215960;22;20032;-74
2022/12/17 19:46:33;;;;;;;0.00;0.00;;;;;;;-0.78;78.60;100873.53;6212335;22;20422;-73
2022/12/17 19:48:59;;;;;;;0.10;0.10;;;;;;;-0.93;78.68;100866.28;6240264;22;20023;-76
2022/12/17 19:51:27;;;;;;;0.10;0.10;;;;;;;-1.00;78.87;100870.69;6237601;22;20052;-74
2022/12/17 19:53:52;;;;;;;0.00;0.00;;;;;;;-1.04;79.75;100863.16;6238668;22;20003;-75
2022/12/17 19:56:26;;;;;;;0.00;0.00;;;;;;;-0.95;80.43;100867.44;6236849;22;19999;-75
2022/12/17 19:58:54;;;;;;;0.00;0.00;;;;;;;-0.92;81.05;100857.22;6240122;22;20041;-74
2022/12/17 20:01:25;;;;;;;0.00;0.00;;;;;;;-0.85;80.79;100862.69;6236467;22;20004;-74
2022/12/17 20:03:52;;;;;;;0.00;0.00;;;;;;;-0.80;80.77;100859.47;6214164;22;20007;-75
2022/12/17 20:06:20;;;;;;;0.00;0.00;;;;;;;-0.74;81.56;100850.69;6211799;22;20015;-77
2022/12/17 20:08:46;;;;;;;0.08;0.08;;;;;;;-0.66;81.91;100864.03;6240266;22;20011;-77
2022/12/17 20:11:33;;;;;;;0.00;0.00;;;;;;;-0.64;82.18;100875.44;6214867;22;20204;-75
2022/12/17 20:14:15;;;;;;;0.00;0.00;;;;;;;-0.63;82.44;100882.47;6235058;22;20008;-74
2022/12/17 20:16:51;;;;;;;0.00;0.00;;;;;;;-0.64;82.23;100885.34;6269612;22;20007;-74
2022/12/17 20:19:19;;;;;;;0.00;0.00;;;;;;;-0.61;83.00;100885.81;6264056;22;20052;-75
2022/12/17 20:21:45;;;;;;;0.00;0.00;;;;;;;-0.64;82.25;100891.56;6239805;22;20004;-75
2022/12/17 20:24:11;;;;;;;0.10;0.10;;;;;;;-0.71;82.06;100882.56;6236522;22;20007;-76
2022/12/17 20:26:40;;;;;;;0.00;0.00;;;;;;;-0.73;82.96;100882.72;6190969;22;20012;-75
2022/12/17 20:29:06;;;;;;;0.10;0.10;;;;;;;-0.73;83.78;100882.72;6263779;22;20295;-75
2022/12/17 20:31:33;;;;;;;0.00;0.00;;;;;;;-0.66;83.82;100887.38;6266812;22;20004;-75
2022/12/17 20:34:03;;;;;;;0.00;0.00;;;;;;;-0.69;82.36;100888.56;6237148;22;20007;-75
2022/12/17 20:36:29;;;;;;;0.00;0.00;;;;;;;-0.73;82.78;100890.78;6266986;22;19996;-74
2022/12/17 20:39:04;;;;;;;0.00;0.00;;;;;;;-0.85;83.41;100886.03;6212139;22;20020;-74
2022/12/17 20:41:30;;;;;;;0.00;0.00;;;;;;;-0.94;82.84;100886.06;6235973;23;20087;-74
2022/12/17 20:43:56;;;;;;;0.00;0.00;;;;;;;-1.07;83.36;100873.25;6209061;23;20495;-74
2022/12/17 20:46:25;;;;;;;0.00;0.00;;;;;;;-1.06;83.25;100890.19;6206671;22;20415;-75
2022/12/17 20:48:51;;;;;;;0.00;0.00;;;;;;;-1.02;84.57;100904.94;6236033;23;19996;-74
2022/12/17 20:51:23;;;;;;;0.00;0.00;;;;;;;-1.00;83.91;100902.06;6312350;22;20007;-76
2022/12/17 20:53:49;;;;;;;0.00;0.00;;;;;;;-1.04;84.29;100895.38;6211252;23;20083;-74
2022/12/17 20:56:19;;;;;;;0.00;0.00;;;;;;;-0.98;85.13;100906.25;6206059;22;20406;-75
2022/12/17 20:58:44;;;;;;;0.00;0.00;;;;;;;-1.02;84.94;100899.56;6209445;23;20033;-77
2022/12/17 21:01:17;;;;;;;0.10;0.10;;;;;;;-1.07;85.68;100904.63;6205089;23;20441;-75
2022/12/17 21:03:43;;;;;;;0.00;0.00;;;;;;;-1.19;84.57;100898.00;6208911;23;20019;-75
2022/12/17 21:06:19;;;;;;;0.00;0.00;;;;;;;-1.23;85.41;100906.41;6209978;23;20008;-74
2022/12/17 21:08:47;;;;;;;0.00;0.00;;;;;;;-1.34;85.57;100904.13;6234882;23;20007;-74
2022/12/17 21:11:14;;;;;;;0.00;0.00;;;;;;;-1.29;86.50;100915.13;6210028;23;20008;-74
2022/12/17 21:13:40;;;;;;;0.10;0.10;;;;;;;-1.46;85.48;100895.63;6230321;23;20000;-75
2022/12/17 21:16:11;;;;;;;0.00;0.00;;;;;;;-1.41;86.47;100906.66;6236866;23;20087;-74
2022/12/17 21:18:37;;;;;;;0.00;0.00;;;;;;;-1.45;85.94;100899.13;6207461;23;19996;-74
2022/12/17 21:21:24;;;;;;;0.00;0.00;;;;;;;-1.33;86.16;100916.53;6183257;23;20015;-74
2022/12/17 21:23:50;;;;;;;0.10;0.10;;;;;;;-1.27;86.28;100913.13;6204550;23;20040;-76
2022/12/17 21:26:22;;;;;;;0.00;0.00;;;;;;;-1.14;85.59;100911.72;6315249;22;20008;-74
2022/12/17 21:28:51;;;;;;;0.10;0.10;;;;;;;-1.20;85.88;100907.88;6234195;23;20004;-74
2022/12/17 21:31:29;;;;;;;0.00;0.00;;;;;;;-1.17;86.36;100917.44;6208603;22;20007;-75
2022/12/17 21:33:57;;;;;;;0.10;0.10;;;;;;;-1.26;86.44;100904.06;6235252;23;20004;-75
2022/12/17 21:36:25;;;;;;;0.00;0.00;;;;;;;-1.38;87.11;100891.22;6209499;23;20045;-75
2022/12/17 21:38:52;;;;;;;0.00;0.00;;;;;;;-1.30;86.92;100907.28;6209527;22;20498;-74
2022/12/17 21:41:23;;;;;;;0.08;0.08;;;;;;;-1.31;86.13;100905.63;6209332;22;20008;-74
2022/12/17 21:43:58;;;;;;;0.10;0.10;;;;;;;-1.43;87.24;100907.81;6240275;22;20020;-76
2022/12/17 21:46:26;;;;;;;0.10;0.10;;;;;;;-1.51;86.94;100899.84;6263302;22;20079;-74
2022/12/17 21:48:52;;;;;;;0.08;0.08;;;;;;;-1.64;87.15;100895.84;6213444;22;20008;-75
2022/12/17 21:51:18;;;;;;;0.00;0.00;;;;;;;-1.63;87.60;100900.22;6237165;22;20027;-75
2022/12/17 21:53:44;;;;;;;0.00;0.00;;;;;;;-1.72;87.48;100893.22;6214480;22;20782;-75
2022/12/17 21:56:15;;;;;;;0.00;0.00;;;;;;;-1.77;87.35;100890.22;6234382;22;20004;-75
2022/12/17 21:58:44;;;;;;;0.00;0.00;;;;;;;-1.64;87.80;100890.50;6238323;22;20442;-74
2022/12/17 22:01:20;;;;;;;0.00;0.00;;;;;;;-1.48;87.61;100894.13;6236858;22;20003;-73
2022/12/17 22:03:47;;;;;;;0.10;0.10;;;;;;;-1.41;88.06;100895.09;6240270;22;20003;-74
2022/12/17 22:06:14;;;;;;;0.00;0.00;;;;;;;-1.37;87.79;100890.19;6238960;22;20003;-75
2022/12/17 22:08:41;;;;;;;0.00;0.00;;;;;;;-1.32;87.62;100883.28;6212526;22;20007;-73
2022/12/17 22:11:15;;;;;;;0.03;0.03;;;;;;;-1.40;87.81;100864.59;6240381;22;20326;-74
2022/12/17 22:14:01;;;;;;;0.00;0.00;;;;;;;-1.25;86.71;100876.22;6236543;22;19996;-74
2022/12/17 22:16:33;;;;;;;0.00;0.00;;;;;;;-1.17;87.42;100869.94;6267151;22;20106;-77
2022/12/17 22:19:00;;;;;;;0.00;0.00;;;;;;;-1.15;87.02;100864.44;6235663;22;20067;-76
2022/12/17 22:21:26;;;;;;;0.00;0.00;;;;;;;-1.15;86.65;100859.06;6215083;22;20422;-74
2022/12/17 22:23:52;;;;;;;0.00;0.00;;;;;;;-1.12;86.59;100858.69;6236156;22;20079;-74
2022/12/17 22:26:18;;;;;;;0.00;0.00;;;;;;;-1.24;87.65;100864.47;6214982;22;20008;-74
2022/12/17 22:28:48;;;;;;;0.00;0.00;;;;;;;-1.34;87.44;100860.31;6266028;22;20074;-74
2022/12/17 22:34:01;;;;;;;0.10;0.10;;;;;;;-1.40;86.82;100859.22;6263779;22;20402;-75
2022/12/17 22:36:28;;;;;;;0.10;0.10;;;;;;;-1.31;87.41;100852.78;6240279;22;20079;-74
2022/12/17 22:38:53;;;;;;;0.10;0.10;;;;;;;-1.18;87.06;100856.72;6239746;22;20015;-74
2022/12/17 22:44:03;;;;;;;0.00;0.00;;;;;;;-1.07;87.58;100856.31;6265791;22;20018;-75
2022/12/17 22:46:30;;;;;;;0.10;0.10;;;;;;;-1.08;87.55;100858.16;6208939;22;20090;-74
2022/12/17 22:48:56;;;;;;;0.00;0.00;;;;;;;-1.09;88.01;100850.28;6238957;22;20008;-75
2022/12/17 22:51:22;;;;;;;0.10;0.10;;;;;;;-1.11;88.04;100847.78;6262006;22;20003;-74
2022/12/17 22:53:48;;;;;;;0.10;0.10;;;;;;;-1.11;88.35;100847.78;6214438;22;20374;-74
2022/12/17 22:56:14;;;;;;;0.10;0.10;;;;;;;-1.07;87.86;100837.50;6234568;22;20354;-75
2022/12/17 22:58:39;;;;;;;0.00;0.00;;;;;;;-0.96;87.82;100841.66;6238888;22;20147;-74
2022/12/17 23:01:05;;;;;;;0.00;0.00;;;;;;;-0.99;87.54;100834.78;6212972;22;20042;-74
2022/12/17 23:03:30;;;;;;;0.10;0.10;;;;;;;-0.91;88.07;100842.75;6184747;22;20102;-75
2022/12/17 23:06:16;;;;;;;0.08;0.08;;;;;;;-0.81;88.17;100849.75;6239700;22;19999;-75
2022/12/17 23:08:42;;;;;;;0.00;0.00;;;;;;;-0.78;88.48;100836.78;6240226;22;20080;-73
2022/12/17 23:11:17;;;;;;;0.10;0.10;;;;;;;-0.73;88.21;100839.75;6239357;22;20086;-74
2022/12/17 23:13:43;;;;;;;0.00;0.00;;;;;;;-0.60;88.75;100838.28;6235825;22;20004;-74
2022/12/17 23:16:12;;;;;;;0.10;0.10;;;;;;;-0.61;88.80;100837.47;6240630;22;20007;-75
2022/12/17 23:18:38;;;;;;;0.10;0.10;;;;;;;-0.57;88.43;100843.28;6238146;22;20010;-74
2022/12/17 23:21:08;;;;;;;0.10;0.10;;;;;;;-0.68;88.30;100831.16;6214458;22;20091;-74
2022/12/17 23:23:34;;;;;;;0.00;0.00;;;;;;;-0.61;88.91;100845.53;6267053;22;20422;-76
2022/12/17 23:26:11;;;;;;;0.10;0.10;;;;;;;-0.60;88.95;100839.16;6237592;22;20018;-74
2022/12/17 23:28:37;;;;;;;0.10;0.10;;;;;;;-0.61;88.24;100837.47;6238636;22;20003;-74
2022/12/17 23:31:29;;;;;;;0.00;0.00;;;;;;;-0.58;88.66;100837.09;6232861;22;19996;-75
2022/12/17 23:33:55;;;;;;;0.05;0.05;;;;;;;-0.63;88.21;100817.16;6234338;22;20004;-77
2022/12/17 23:36:34;;;;;;;0.00;0.00;;;;;;;-0.62;88.66;100819.66;6265501;22;20011;-75
2022/12/17 23:39:00;;;;;;;0.10;0.10;;;;;;;-0.67;88.27;100805.97;6220463;22;20303;-77
2022/12/17 23:41:28;;;;;;;0.00;0.00;;;;;;;-0.59;89.13;100818.47;6265418;22;20004;-74
2022/12/17 23:43:54;;;;;;;0.00;0.00;;;;;;;-0.66;88.85;100796.88;6267787;22;20540;-77
2022/12/17 23:46:28;;;;;;;0.00;0.00;;;;;;;-0.58;88.52;100802.19;6218046;22;20015;-76
2022/12/17 23:51:54;;;;;;;0.10;0.10;;;;;;;-0.74;88.47;100780.84;6272613;22;20004;-77
2022/12/17 23:54:38;;;;;;;;;;;;;;;;;;;;;
2022/12/17 23:57:04;;;;;;;0.00;0.00;;;;;;;-0.85;89.13;100751.75;6266538;22;20075;-73
2022/12/17 23:59:32;;;;;;;0.00;0.00;;;;;;;-0.65;89.39;100787.81;6262930;22;20071;-74
